sensor_id;sensor_type;location;lat;lon;timestamp;temperature;humidity
9907;DHT22;4992;51.628;6.664;2023-11-21T00:02:04;6.00;99.90
9907;DHT22;4992;51.628;6.664;2023-11-21T00:04:30;6.10;99.90
9907;DHT22;4992;51.628;6.664;2023-11-21T00:06:55;6.10;99.90
9907;DHT22;4992;51.628;6.664;2023-11-21T00:09:21;6.10;99.90
9907;DHT22;4992;51.628;6.664;2023-11-21T00:11:47;6.20;99.90
9907;DHT22;4992;51.628;6.664;2023-11-21T00:14:12;6.30;99.90
9907;DHT22;4992;51.628;6.664;2023-11-21T00:16:40;6.30;99.90
9907;DHT22;4992;51.628;6.664;2023-11-21T00:19:05;6.40;99.90
9907;DHT22;4992;51.628;6.664;2023-11-21T00:21:31;6.40;99.90
9907;DHT22;4992;51.628;6.664;2023-11-21T00:23:56;6.40;99.90
9907;DHT22;4992;51.628;6.664;2023-11-21T00:26:22;6.50;99.90
9907;DHT22;4992;51.628;6.664;2023-11-21T00:28:49;6.50;99.90
9907;DHT22;4992;51.628;6.664;2023-11-21T00:31:15;6.60;99.90
9907;DHT22;4992;51.628;6.664;2023-11-21T00:33:41;6.60;99.90
9907;DHT22;4992;51.628;6.664;2023-11-21T00:36:07;6.70;99.90
9907;DHT22;4992;51.628;6.664;2023-11-21T00:38:35;6.70;99.90
9907;DHT22;4992;51.628;6.664;2023-11-21T00:41:01;6.80;99.90
9907;DHT22;4992;51.628;6.664;2023-11-21T00:43:28;6.80;99.90
9907;DHT22;4992;51.628;6.664;2023-11-21T00:45:53;6.80;99.90
9907;DHT22;4992;51.628;6.664;2023-11-21T00:48:19;6.80;99.90
9907;DHT22;4992;51.628;6.664;2023-11-21T00:50:44;6.80;99.90
9907;DHT22;4992;51.628;6.664;2023-11-21T00:53:10;6.90;99.90
9907;DHT22;4992;51.628;6.664;2023-11-21T00:55:36;6.90;99.90
9907;DHT22;4992;51.628;6.664;2023-11-21T00:58:02;6.90;99.90
9907;DHT22;4992;51.628;6.664;2023-11-21T01:00:29;7.00;99.90
9907;DHT22;4992;51.628;6.664;2023-11-21T01:02:55;7.00;99.90
9907;DHT22;4992;51.628;6.664;2023-11-21T01:05:21;7.00;99.90
9907;DHT22;4992;51.628;6.664;2023-11-21T01:07:46;7.10;99.90
9907;DHT22;4992;51.628;6.664;2023-11-21T01:10:12;7.10;99.90
9907;DHT22;4992;51.628;6.664;2023-11-21T01:12:38;7.10;99.90
9907;DHT22;4992;51.628;6.664;2023-11-21T01:15:05;7.20;99.90
9907;DHT22;4992;51.628;6.664;2023-11-21T01:17:33;7.20;99.90
9907;DHT22;4992;51.628;6.664;2023-11-21T01:19:59;7.20;99.90
9907;DHT22;4992;51.628;6.664;2023-11-21T01:22:25;7.30;99.90
9907;DHT22;4992;51.628;6.664;2023-11-21T01:24:52;7.30;99.90
9907;DHT22;4992;51.628;6.664;2023-11-21T01:27:18;7.30;99.90
9907;DHT22;4992;51.628;6.664;2023-11-21T01:29:44;7.30;99.90
9907;DHT22;4992;51.628;6.664;2023-11-21T01:32:10;7.30;99.90
9907;DHT22;4992;51.628;6.664;2023-11-21T01:34:36;7.40;99.90
9907;DHT22;4992;51.628;6.664;2023-11-21T01:37:02;7.40;99.90
9907;DHT22;4992;51.628;6.664;2023-11-21T01:39:30;7.40;99.90
9907;DHT22;4992;51.628;6.664;2023-11-21T01:41:55;7.40;99.90
9907;DHT22;4992;51.628;6.664;2023-11-21T01:44:22;7.40;99.90
9907;DHT22;4992;51.628;6.664;2023-11-21T01:46:50;7.40;99.90
9907;DHT22;4992;51.628;6.664;2023-11-21T01:49:16;7.50;99.90
9907;DHT22;4992;51.628;6.664;2023-11-21T01:51:46;7.50;99.90
9907;DHT22;4992;51.628;6.664;2023-11-21T01:54:14;7.50;99.90
9907;DHT22;4992;51.628;6.664;2023-11-21T01:56:40;7.50;99.90
9907;DHT22;4992;51.628;6.664;2023-11-21T01:59:06;7.50;99.90
9907;DHT22;4992;51.628;6.664;2023-11-21T02:01:33;7.50;99.90
9907;DHT22;4992;51.628;6.664;2023-11-21T02:03:59;7.50;99.90
9907;DHT22;4992;51.628;6.664;2023-11-21T02:06:24;7.50;99.90
9907;DHT22;4992;51.628;6.664;2023-11-21T02:08:51;7.50;99.90
9907;DHT22;4992;51.628;6.664;2023-11-21T02:11:17;7.50;99.90
9907;DHT22;4992;51.628;6.664;2023-11-21T02:13:44;7.50;99.90
9907;DHT22;4992;51.628;6.664;2023-11-21T02:16:11;7.50;99.90
9907;DHT22;4992;51.628;6.664;2023-11-21T02:18:38;7.50;99.90
9907;DHT22;4992;51.628;6.664;2023-11-21T02:21:05;7.50;99.90
9907;DHT22;4992;51.628;6.664;2023-11-21T02:23:30;7.50;99.90
9907;DHT22;4992;51.628;6.664;2023-11-21T02:25:56;7.50;99.90
9907;DHT22;4992;51.628;6.664;2023-11-21T02:28:22;7.60;99.90
9907;DHT22;4992;51.628;6.664;2023-11-21T02:30:51;7.60;99.90
9907;DHT22;4992;51.628;6.664;2023-11-21T02:33:24;7.60;99.90
9907;DHT22;4992;51.628;6.664;2023-11-21T02:35:50;7.60;99.90
9907;DHT22;4992;51.628;6.664;2023-11-21T02:38:22;7.60;99.90
9907;DHT22;4992;51.628;6.664;2023-11-21T02:40:48;7.60;99.90
9907;DHT22;4992;51.628;6.664;2023-11-21T02:43:14;7.60;99.90
9907;DHT22;4992;51.628;6.664;2023-11-21T02:45:40;7.60;99.90
9907;DHT22;4992;51.628;6.664;2023-11-21T02:48:07;7.70;99.90
9907;DHT22;4992;51.628;6.664;2023-11-21T02:50:32;7.70;99.90
9907;DHT22;4992;51.628;6.664;2023-11-21T02:53:00;7.70;99.90
9907;DHT22;4992;51.628;6.664;2023-11-21T02:55:27;7.70;99.90
9907;DHT22;4992;51.628;6.664;2023-11-21T02:57:53;7.70;99.90
9907;DHT22;4992;51.628;6.664;2023-11-21T03:00:18;7.80;99.90
9907;DHT22;4992;51.628;6.664;2023-11-21T03:02:45;7.80;99.90
9907;DHT22;4992;51.628;6.664;2023-11-21T03:05:13;7.80;99.90
9907;DHT22;4992;51.628;6.664;2023-11-21T03:07:39;7.80;99.90
9907;DHT22;4992;51.628;6.664;2023-11-21T03:10:06;7.80;99.90
9907;DHT22;4992;51.628;6.664;2023-11-21T03:12:34;7.80;99.90
9907;DHT22;4992;51.628;6.664;2023-11-21T03:15:00;7.80;99.90
9907;DHT22;4992;51.628;6.664;2023-11-21T03:17:27;7.80;99.90
9907;DHT22;4992;51.628;6.664;2023-11-21T03:19:54;7.80;99.90
9907;DHT22;4992;51.628;6.664;2023-11-21T03:22:20;7.80;99.90
9907;DHT22;4992;51.628;6.664;2023-11-21T03:24:45;7.70;99.90
9907;DHT22;4992;51.628;6.664;2023-11-21T03:27:11;7.70;99.90
9907;DHT22;4992;51.628;6.664;2023-11-21T03:29:37;7.70;99.90
9907;DHT22;4992;51.628;6.664;2023-11-21T03:32:03;7.70;99.90
9907;DHT22;4992;51.628;6.664;2023-11-21T03:34:29;7.70;99.90
9907;DHT22;4992;51.628;6.664;2023-11-21T03:36:54;7.70;99.90
9907;DHT22;4992;51.628;6.664;2023-11-21T03:39:20;7.60;99.90
9907;DHT22;4992;51.628;6.664;2023-11-21T03:41:47;7.60;99.90
9907;DHT22;4992;51.628;6.664;2023-11-21T03:44:13;7.60;99.90
9907;DHT22;4992;51.628;6.664;2023-11-21T03:46:38;7.60;99.90
9907;DHT22;4992;51.628;6.664;2023-11-21T03:49:04;7.70;99.90
9907;DHT22;4992;51.628;6.664;2023-11-21T03:51:29;7.70;99.90
9907;DHT22;4992;51.628;6.664;2023-11-21T03:53:55;7.60;99.90
9907;DHT22;4992;51.628;6.664;2023-11-21T03:56:21;7.70;99.90
9907;DHT22;4992;51.628;6.664;2023-11-21T03:58:49;7.70;99.90
9907;DHT22;4992;51.628;6.664;2023-11-21T04:01:22;7.70;99.90
9907;DHT22;4992;51.628;6.664;2023-11-21T04:03:48;7.70;99.90
9907;DHT22;4992;51.628;6.664;2023-11-21T04:06:14;7.70;99.90
9907;DHT22;4992;51.628;6.664;2023-11-21T04:08:39;7.60;99.90
9907;DHT22;4992;51.628;6.664;2023-11-21T04:11:05;7.70;99.90
9907;DHT22;4992;51.628;6.664;2023-11-21T04:13:31;7.60;99.90
9907;DHT22;4992;51.628;6.664;2023-11-21T04:15:56;7.60;99.90
9907;DHT22;4992;51.628;6.664;2023-11-21T04:18:22;7.60;99.90
9907;DHT22;4992;51.628;6.664;2023-11-21T04:20:49;7.60;99.90
9907;DHT22;4992;51.628;6.664;2023-11-21T04:23:14;7.60;99.90
9907;DHT22;4992;51.628;6.664;2023-11-21T04:25:40;7.50;99.90
9907;DHT22;4992;51.628;6.664;2023-11-21T04:28:06;7.60;99.90
9907;DHT22;4992;51.628;6.664;2023-11-21T04:30:31;7.50;99.90
9907;DHT22;4992;51.628;6.664;2023-11-21T04:32:58;7.50;99.90
9907;DHT22;4992;51.628;6.664;2023-11-21T04:35:23;7.50;99.90
9907;DHT22;4992;51.628;6.664;2023-11-21T04:37:49;7.50;99.90
9907;DHT22;4992;51.628;6.664;2023-11-21T04:40:16;7.40;99.90
9907;DHT22;4992;51.628;6.664;2023-11-21T04:42:42;7.40;99.90
9907;DHT22;4992;51.628;6.664;2023-11-21T04:45:08;7.40;99.90
9907;DHT22;4992;51.628;6.664;2023-11-21T04:47:35;7.50;99.90
9907;DHT22;4992;51.628;6.664;2023-11-21T04:50:01;7.40;99.90
9907;DHT22;4992;51.628;6.664;2023-11-21T04:52:28;7.50;99.90
9907;DHT22;4992;51.628;6.664;2023-11-21T04:54:53;7.50;99.90
9907;DHT22;4992;51.628;6.664;2023-11-21T04:57:20;7.50;99.90
9907;DHT22;4992;51.628;6.664;2023-11-21T04:59:46;7.60;99.90
9907;DHT22;4992;51.628;6.664;2023-11-21T05:02:11;7.60;99.90
9907;DHT22;4992;51.628;6.664;2023-11-21T05:04:37;7.60;99.90
9907;DHT22;4992;51.628;6.664;2023-11-21T05:07:03;7.70;99.90
9907;DHT22;4992;51.628;6.664;2023-11-21T05:09:28;7.70;99.90
9907;DHT22;4992;51.628;6.664;2023-11-21T05:11:57;7.70;99.90
9907;DHT22;4992;51.628;6.664;2023-11-21T05:14:23;7.80;99.90
9907;DHT22;4992;51.628;6.664;2023-11-21T05:16:48;7.80;99.90
9907;DHT22;4992;51.628;6.664;2023-11-21T05:19:17;7.80;99.90
9907;DHT22;4992;51.628;6.664;2023-11-21T05:21:42;7.80;99.90
9907;DHT22;4992;51.628;6.664;2023-11-21T05:24:08;7.80;99.90
9907;DHT22;4992;51.628;6.664;2023-11-21T05:26:34;7.80;99.90
9907;DHT22;4992;51.628;6.664;2023-11-21T05:29:00;7.80;99.90
9907;DHT22;4992;51.628;6.664;2023-11-21T05:31:25;7.80;99.90
9907;DHT22;4992;51.628;6.664;2023-11-21T05:33:52;7.80;99.90
9907;DHT22;4992;51.628;6.664;2023-11-21T05:36:18;7.80;99.90
9907;DHT22;4992;51.628;6.664;2023-11-21T05:38:44;7.80;99.90
9907;DHT22;4992;51.628;6.664;2023-11-21T05:41:09;7.80;99.90
9907;DHT22;4992;51.628;6.664;2023-11-21T05:43:38;7.90;99.90
9907;DHT22;4992;51.628;6.664;2023-11-21T05:46:04;7.90;99.90
9907;DHT22;4992;51.628;6.664;2023-11-21T05:48:31;7.90;99.90
9907;DHT22;4992;51.628;6.664;2023-11-21T05:50:56;7.90;99.90
9907;DHT22;4992;51.628;6.664;2023-11-21T05:53:22;7.90;99.90
9907;DHT22;4992;51.628;6.664;2023-11-21T05:55:48;7.90;99.90
9907;DHT22;4992;51.628;6.664;2023-11-21T05:58:13;7.90;99.90
9907;DHT22;4992;51.628;6.664;2023-11-21T06:00:39;8.00;99.90
9907;DHT22;4992;51.628;6.664;2023-11-21T06:03:04;7.90;99.90
9907;DHT22;4992;51.628;6.664;2023-11-21T06:05:32;8.00;99.90
9907;DHT22;4992;51.628;6.664;2023-11-21T06:07:59;8.00;99.90
9907;DHT22;4992;51.628;6.664;2023-11-21T06:10:25;8.00;99.90
9907;DHT22;4992;51.628;6.664;2023-11-21T06:12:51;8.00;99.90
9907;DHT22;4992;51.628;6.664;2023-11-21T06:15:17;8.00;99.90
9907;DHT22;4992;51.628;6.664;2023-11-21T06:17:45;8.00;99.90
9907;DHT22;4992;51.628;6.664;2023-11-21T06:20:15;8.00;99.90
9907;DHT22;4992;51.628;6.664;2023-11-21T06:22:45;8.00;99.90
9907;DHT22;4992;51.628;6.664;2023-11-21T06:25:13;8.00;99.90
9907;DHT22;4992;51.628;6.664;2023-11-21T06:27:41;8.00;99.90
9907;DHT22;4992;51.628;6.664;2023-11-21T06:30:07;8.00;99.90
9907;DHT22;4992;51.628;6.664;2023-11-21T06:32:35;8.00;99.90
9907;DHT22;4992;51.628;6.664;2023-11-21T06:35:02;8.00;99.90
9907;DHT22;4992;51.628;6.664;2023-11-21T06:37:29;8.00;99.90
9907;DHT22;4992;51.628;6.664;2023-11-21T06:39:56;8.00;99.90
9907;DHT22;4992;51.628;6.664;2023-11-21T06:42:22;8.00;99.90
9907;DHT22;4992;51.628;6.664;2023-11-21T06:44:49;8.00;99.90
9907;DHT22;4992;51.628;6.664;2023-11-21T06:47:17;8.00;99.90
9907;DHT22;4992;51.628;6.664;2023-11-21T06:49:43;8.00;99.90
9907;DHT22;4992;51.628;6.664;2023-11-21T06:52:09;8.00;99.90
9907;DHT22;4992;51.628;6.664;2023-11-21T06:54:35;8.00;99.90
9907;DHT22;4992;51.628;6.664;2023-11-21T06:57:02;8.00;99.90
9907;DHT22;4992;51.628;6.664;2023-11-21T06:59:31;8.00;99.90
9907;DHT22;4992;51.628;6.664;2023-11-21T07:01:57;8.00;99.90
9907;DHT22;4992;51.628;6.664;2023-11-21T07:04:22;8.00;99.90
9907;DHT22;4992;51.628;6.664;2023-11-21T07:06:48;8.10;99.90
9907;DHT22;4992;51.628;6.664;2023-11-21T07:09:13;8.00;99.90
9907;DHT22;4992;51.628;6.664;2023-11-21T07:11:39;8.10;99.90
9907;DHT22;4992;51.628;6.664;2023-11-21T07:14:05;8.10;99.90
9907;DHT22;4992;51.628;6.664;2023-11-21T07:16:37;8.10;99.90
9907;DHT22;4992;51.628;6.664;2023-11-21T07:19:06;8.00;99.90
9907;DHT22;4992;51.628;6.664;2023-11-21T07:21:33;8.10;99.90
9907;DHT22;4992;51.628;6.664;2023-11-21T07:24:02;8.10;99.90
9907;DHT22;4992;51.628;6.664;2023-11-21T07:26:28;8.10;99.90
9907;DHT22;4992;51.628;6.664;2023-11-21T07:28:54;8.10;99.90
9907;DHT22;4992;51.628;6.664;2023-11-21T07:31:21;8.10;99.90
9907;DHT22;4992;51.628;6.664;2023-11-21T07:33:46;8.10;99.90
9907;DHT22;4992;51.628;6.664;2023-11-21T07:36:16;8.10;99.90
9907;DHT22;4992;51.628;6.664;2023-11-21T07:38:44;8.10;99.90
9907;DHT22;4992;51.628;6.664;2023-11-21T07:41:10;8.10;99.90
9907;DHT22;4992;51.628;6.664;2023-11-21T07:43:36;8.10;99.90
9907;DHT22;4992;51.628;6.664;2023-11-21T07:46:03;8.10;99.90
9907;DHT22;4992;51.628;6.664;2023-11-21T07:48:32;8.20;99.90
9907;DHT22;4992;51.628;6.664;2023-11-21T07:50:58;8.20;99.90
9907;DHT22;4992;51.628;6.664;2023-11-21T07:53:25;8.20;99.90
9907;DHT22;4992;51.628;6.664;2023-11-21T07:55:51;8.20;99.90
9907;DHT22;4992;51.628;6.664;2023-11-21T07:58:17;8.20;99.90
9907;DHT22;4992;51.628;6.664;2023-11-21T08:00:43;8.30;99.90
9907;DHT22;4992;51.628;6.664;2023-11-21T08:03:08;8.30;99.90
9907;DHT22;4992;51.628;6.664;2023-11-21T08:05:34;8.30;99.90
9907;DHT22;4992;51.628;6.664;2023-11-21T08:08:00;8.30;99.90
9907;DHT22;4992;51.628;6.664;2023-11-21T08:10:25;8.40;99.90
9907;DHT22;4992;51.628;6.664;2023-11-21T08:12:51;8.40;99.90
9907;DHT22;4992;51.628;6.664;2023-11-21T08:15:17;8.40;99.90
9907;DHT22;4992;51.628;6.664;2023-11-21T08:17:43;8.40;99.90
9907;DHT22;4992;51.628;6.664;2023-11-21T08:20:09;8.40;99.90
9907;DHT22;4992;51.628;6.664;2023-11-21T08:22:36;8.40;99.90
9907;DHT22;4992;51.628;6.664;2023-11-21T08:25:02;8.50;99.90
9907;DHT22;4992;51.628;6.664;2023-11-21T08:27:30;8.50;99.90
9907;DHT22;4992;51.628;6.664;2023-11-21T08:29:55;8.50;99.90
9907;DHT22;4992;51.628;6.664;2023-11-21T08:32:22;8.50;99.90
9907;DHT22;4992;51.628;6.664;2023-11-21T08:34:48;8.50;99.90
9907;DHT22;4992;51.628;6.664;2023-11-21T08:37:16;8.50;99.90
9907;DHT22;4992;51.628;6.664;2023-11-21T08:39:43;8.60;99.90
9907;DHT22;4992;51.628;6.664;2023-11-21T08:42:09;8.60;99.90
9907;DHT22;4992;51.628;6.664;2023-11-21T08:44:35;8.60;99.90
9907;DHT22;4992;51.628;6.664;2023-11-21T08:47:00;8.60;99.90
9907;DHT22;4992;51.628;6.664;2023-11-21T08:49:26;8.70;99.90
9907;DHT22;4992;51.628;6.664;2023-11-21T08:51:53;8.70;99.90
9907;DHT22;4992;51.628;6.664;2023-11-21T08:54:20;8.70;99.90
9907;DHT22;4992;51.628;6.664;2023-11-21T08:56:46;8.70;99.90
9907;DHT22;4992;51.628;6.664;2023-11-21T08:59:13;8.80;99.90
9907;DHT22;4992;51.628;6.664;2023-11-21T09:01:39;8.80;99.90
9907;DHT22;4992;51.628;6.664;2023-11-21T09:04:05;8.90;99.90
9907;DHT22;4992;51.628;6.664;2023-11-21T09:06:31;8.90;99.90
9907;DHT22;4992;51.628;6.664;2023-11-21T09:08:56;8.90;99.90
9907;DHT22;4992;51.628;6.664;2023-11-21T09:11:22;9.00;99.90
9907;DHT22;4992;51.628;6.664;2023-11-21T09:13:48;9.00;99.90
9907;DHT22;4992;51.628;6.664;2023-11-21T09:16:14;9.10;99.90
9907;DHT22;4992;51.628;6.664;2023-11-21T09:18:41;9.10;99.90
9907;DHT22;4992;51.628;6.664;2023-11-21T09:21:06;9.20;99.90
9907;DHT22;4992;51.628;6.664;2023-11-21T09:23:32;9.20;99.90
9907;DHT22;4992;51.628;6.664;2023-11-21T09:25:58;9.30;99.90
9907;DHT22;4992;51.628;6.664;2023-11-21T09:28:25;9.40;99.90
9907;DHT22;4992;51.628;6.664;2023-11-21T09:30:52;9.50;99.90
9907;DHT22;4992;51.628;6.664;2023-11-21T09:33:18;9.60;99.90
9907;DHT22;4992;51.628;6.664;2023-11-21T09:35:44;9.60;99.90
9907;DHT22;4992;51.628;6.664;2023-11-21T09:38:09;9.70;99.90
9907;DHT22;4992;51.628;6.664;2023-11-21T09:40:36;9.70;99.90
9907;DHT22;4992;51.628;6.664;2023-11-21T09:43:08;9.70;99.90
9907;DHT22;4992;51.628;6.664;2023-11-21T09:45:39;9.70;99.90
9907;DHT22;4992;51.628;6.664;2023-11-21T09:48:06;9.70;99.90
9907;DHT22;4992;51.628;6.664;2023-11-21T09:50:32;9.70;99.90
9907;DHT22;4992;51.628;6.664;2023-11-21T09:53:18;9.70;99.90
9907;DHT22;4992;51.628;6.664;2023-11-21T09:55:47;9.70;99.90
9907;DHT22;4992;51.628;6.664;2023-11-21T09:58:14;9.70;99.90
9907;DHT22;4992;51.628;6.664;2023-11-21T10:00:41;9.70;99.90
9907;DHT22;4992;51.628;6.664;2023-11-21T10:03:07;9.70;99.90
9907;DHT22;4992;51.628;6.664;2023-11-21T10:05:34;9.80;99.90
9907;DHT22;4992;51.628;6.664;2023-11-21T10:08:00;9.80;99.90
9907;DHT22;4992;51.628;6.664;2023-11-21T10:10:27;9.80;99.90
9907;DHT22;4992;51.628;6.664;2023-11-21T10:13:02;9.80;99.90
9907;DHT22;4992;51.628;6.664;2023-11-21T10:15:35;9.70;99.90
9907;DHT22;4992;51.628;6.664;2023-11-21T10:18:05;9.80;99.90
9907;DHT22;4992;51.628;6.664;2023-11-21T10:20:32;9.80;99.90
9907;DHT22;4992;51.628;6.664;2023-11-21T10:23:03;9.80;99.90
9907;DHT22;4992;51.628;6.664;2023-11-21T10:25:30;9.90;99.90
9907;DHT22;4992;51.628;6.664;2023-11-21T10:28:01;10.00;99.90
9907;DHT22;4992;51.628;6.664;2023-11-21T10:30:37;10.00;99.90
9907;DHT22;4992;51.628;6.664;2023-11-21T10:33:03;10.00;99.90
9907;DHT22;4992;51.628;6.664;2023-11-21T10:35:45;10.00;99.90
9907;DHT22;4992;51.628;6.664;2023-11-21T10:38:12;10.00;99.90
9907;DHT22;4992;51.628;6.664;2023-11-21T10:40:42;10.10;99.90
9907;DHT22;4992;51.628;6.664;2023-11-21T10:43:11;10.20;99.90
9907;DHT22;4992;51.628;6.664;2023-11-21T10:45:41;10.20;99.90
9907;DHT22;4992;51.628;6.664;2023-11-21T10:48:08;10.20;99.90
9907;DHT22;4992;51.628;6.664;2023-11-21T10:50:37;10.20;99.90
9907;DHT22;4992;51.628;6.664;2023-11-21T10:53:04;10.30;99.90
9907;DHT22;4992;51.628;6.664;2023-11-21T10:55:30;10.30;99.90
9907;DHT22;4992;51.628;6.664;2023-11-21T10:57:59;10.30;99.90
9907;DHT22;4992;51.628;6.664;2023-11-21T11:00:27;10.40;99.90
9907;DHT22;4992;51.628;6.664;2023-11-21T11:02:54;10.30;99.90
9907;DHT22;4992;51.628;6.664;2023-11-21T11:05:21;10.30;99.90
9907;DHT22;4992;51.628;6.664;2023-11-21T11:07:50;10.40;99.90
9907;DHT22;4992;51.628;6.664;2023-11-21T11:10:21;10.40;99.90
9907;DHT22;4992;51.628;6.664;2023-11-21T11:12:48;10.40;99.90
9907;DHT22;4992;51.628;6.664;2023-11-21T11:15:18;10.40;99.90
9907;DHT22;4992;51.628;6.664;2023-11-21T11:17:45;10.50;99.90
9907;DHT22;4992;51.628;6.664;2023-11-21T11:20:13;10.40;99.90
9907;DHT22;4992;51.628;6.664;2023-11-21T11:23:11;10.50;99.90
9907;DHT22;4992;51.628;6.664;2023-11-21T11:28:14;10.40;99.90
9907;DHT22;4992;51.628;6.664;2023-11-21T11:31:21;10.40;99.90
9907;DHT22;4992;51.628;6.664;2023-11-21T11:36:50;10.50;99.90
9907;DHT22;4992;51.628;6.664;2023-11-21T11:41:56;10.50;99.90
9907;DHT22;4992;51.628;6.664;2023-11-21T11:44:53;10.40;99.90
9907;DHT22;4992;51.628;6.664;2023-11-21T11:47:31;10.50;99.90
9907;DHT22;4992;51.628;6.664;2023-11-21T11:50:11;10.50;99.90
9907;DHT22;4992;51.628;6.664;2023-11-21T11:52:42;10.50;99.90
9907;DHT22;4992;51.628;6.664;2023-11-21T11:55:16;10.50;99.90
9907;DHT22;4992;51.628;6.664;2023-11-21T11:57:46;10.50;99.90
9907;DHT22;4992;51.628;6.664;2023-11-21T12:00:17;10.50;99.90
9907;DHT22;4992;51.628;6.664;2023-11-21T12:02:48;10.40;99.90
9907;DHT22;4992;51.628;6.664;2023-11-21T12:05:16;10.40;99.90
9907;DHT22;4992;51.628;6.664;2023-11-21T12:07:46;10.40;99.90
9907;DHT22;4992;51.628;6.664;2023-11-21T12:10:14;10.40;99.90
9907;DHT22;4992;51.628;6.664;2023-11-21T12:12:50;10.30;99.90
9907;DHT22;4992;51.628;6.664;2023-11-21T12:15:18;10.30;99.90
9907;DHT22;4992;51.628;6.664;2023-11-21T12:17:45;10.40;99.90
9907;DHT22;4992;51.628;6.664;2023-11-21T12:20:12;10.30;99.90
9907;DHT22;4992;51.628;6.664;2023-11-21T12:22:50;10.30;99.90
9907;DHT22;4992;51.628;6.664;2023-11-21T12:25:24;10.30;99.90
9907;DHT22;4992;51.628;6.664;2023-11-21T12:27:51;10.30;99.90
9907;DHT22;4992;51.628;6.664;2023-11-21T12:30:19;10.30;99.90
9907;DHT22;4992;51.628;6.664;2023-11-21T12:32:54;10.20;99.90
9907;DHT22;4992;51.628;6.664;2023-11-21T12:35:22;10.10;99.90
9907;DHT22;4992;51.628;6.664;2023-11-21T12:37:49;10.10;99.90
9907;DHT22;4992;51.628;6.664;2023-11-21T12:40:16;10.10;99.90
9907;DHT22;4992;51.628;6.664;2023-11-21T12:42:43;10.10;99.90
9907;DHT22;4992;51.628;6.664;2023-11-21T12:45:29;10.10;99.90
9907;DHT22;4992;51.628;6.664;2023-11-21T12:47:58;10.10;99.90
9907;DHT22;4992;51.628;6.664;2023-11-21T12:50:26;10.10;99.90
9907;DHT22;4992;51.628;6.664;2023-11-21T12:53:01;10.10;99.90
9907;DHT22;4992;51.628;6.664;2023-11-21T12:55:30;10.10;99.90
9907;DHT22;4992;51.628;6.664;2023-11-21T12:57:56;10.00;99.90
9907;DHT22;4992;51.628;6.664;2023-11-21T13:00:32;10.00;99.90
9907;DHT22;4992;51.628;6.664;2023-11-21T13:02:59;10.10;99.90
9907;DHT22;4992;51.628;6.664;2023-11-21T13:05:27;10.10;99.90
9907;DHT22;4992;51.628;6.664;2023-11-21T13:07:54;10.10;99.90
9907;DHT22;4992;51.628;6.664;2023-11-21T13:10:25;10.10;99.90
9907;DHT22;4992;51.628;6.664;2023-11-21T13:12:52;10.10;99.90
9907;DHT22;4992;51.628;6.664;2023-11-21T13:15:19;10.10;99.90
9907;DHT22;4992;51.628;6.664;2023-11-21T13:17:45;10.10;99.90
9907;DHT22;4992;51.628;6.664;2023-11-21T13:20:11;10.10;99.90
9907;DHT22;4992;51.628;6.664;2023-11-21T13:22:46;10.10;99.90
9907;DHT22;4992;51.628;6.664;2023-11-21T13:25:11;10.10;99.90
9907;DHT22;4992;51.628;6.664;2023-11-21T13:27:37;10.00;99.90
9907;DHT22;4992;51.628;6.664;2023-11-21T13:30:03;10.00;99.90
9907;DHT22;4992;51.628;6.664;2023-11-21T13:32:29;10.00;99.90
9907;DHT22;4992;51.628;6.664;2023-11-21T13:34:57;10.00;99.90
9907;DHT22;4992;51.628;6.664;2023-11-21T13:37:25;9.90;99.90
9907;DHT22;4992;51.628;6.664;2023-11-21T13:39:53;10.00;99.90
9907;DHT22;4992;51.628;6.664;2023-11-21T13:42:20;9.90;99.90
9907;DHT22;4992;51.628;6.664;2023-11-21T13:44:49;9.90;99.90
9907;DHT22;4992;51.628;6.664;2023-11-21T13:47:15;9.90;99.90
9907;DHT22;4992;51.628;6.664;2023-11-21T13:49:41;9.90;99.90
9907;DHT22;4992;51.628;6.664;2023-11-21T13:52:07;9.80;99.90
9907;DHT22;4992;51.628;6.664;2023-11-21T13:54:33;9.80;99.90
9907;DHT22;4992;51.628;6.664;2023-11-21T13:56:58;9.80;99.90
9907;DHT22;4992;51.628;6.664;2023-11-21T13:59:25;9.80;99.90
9907;DHT22;4992;51.628;6.664;2023-11-21T14:01:53;9.80;99.90
9907;DHT22;4992;51.628;6.664;2023-11-21T14:04:25;9.70;99.90
9907;DHT22;4992;51.628;6.664;2023-11-21T14:06:51;9.70;99.90
9907;DHT22;4992;51.628;6.664;2023-11-21T14:09:21;9.70;99.90
9907;DHT22;4992;51.628;6.664;2023-11-21T14:11:52;9.70;99.90
9907;DHT22;4992;51.628;6.664;2023-11-21T14:14:19;9.70;99.90
9907;DHT22;4992;51.628;6.664;2023-11-21T14:16:45;9.70;99.90
9907;DHT22;4992;51.628;6.664;2023-11-21T14:19:11;9.70;99.90
9907;DHT22;4992;51.628;6.664;2023-11-21T14:21:46;9.70;99.90
9907;DHT22;4992;51.628;6.664;2023-11-21T14:24:12;9.70;99.90
9907;DHT22;4992;51.628;6.664;2023-11-21T14:26:42;9.60;99.90
9907;DHT22;4992;51.628;6.664;2023-11-21T14:29:08;9.60;99.90
9907;DHT22;4992;51.628;6.664;2023-11-21T14:31:34;9.60;99.90
9907;DHT22;4992;51.628;6.664;2023-11-21T14:34:00;9.60;99.90
9907;DHT22;4992;51.628;6.664;2023-11-21T14:36:29;9.60;99.90
9907;DHT22;4992;51.628;6.664;2023-11-21T14:38:55;9.60;99.90
9907;DHT22;4992;51.628;6.664;2023-11-21T14:41:20;9.60;99.90
9907;DHT22;4992;51.628;6.664;2023-11-21T14:43:46;9.60;99.90
9907;DHT22;4992;51.628;6.664;2023-11-21T14:46:15;9.50;99.90
9907;DHT22;4992;51.628;6.664;2023-11-21T14:48:42;9.50;99.90
9907;DHT22;4992;51.628;6.664;2023-11-21T14:51:11;9.50;99.90
9907;DHT22;4992;51.628;6.664;2023-11-21T14:53:55;9.50;99.90
9907;DHT22;4992;51.628;6.664;2023-11-21T14:56:25;9.40;99.90
9907;DHT22;4992;51.628;6.664;2023-11-21T14:58:58;9.50;99.90
9907;DHT22;4992;51.628;6.664;2023-11-21T15:01:41;9.40;99.90
9907;DHT22;4992;51.628;6.664;2023-11-21T15:04:23;9.40;99.90
9907;DHT22;4992;51.628;6.664;2023-11-21T15:07:08;9.40;99.90
9907;DHT22;4992;51.628;6.664;2023-11-21T15:09:33;9.30;99.90
9907;DHT22;4992;51.628;6.664;2023-11-21T15:12:00;9.30;99.90
9907;DHT22;4992;51.628;6.664;2023-11-21T15:14:49;9.30;99.90
9907;DHT22;4992;51.628;6.664;2023-11-21T15:17:18;9.30;99.90
9907;DHT22;4992;51.628;6.664;2023-11-21T15:19:56;9.20;99.90
9907;DHT22;4992;51.628;6.664;2023-11-21T15:22:22;9.20;99.90
9907;DHT22;4992;51.628;6.664;2023-11-21T15:24:48;9.20;99.90
9907;DHT22;4992;51.628;6.664;2023-11-21T15:27:15;9.20;99.90
9907;DHT22;4992;51.628;6.664;2023-11-21T15:29:42;9.20;99.90
9907;DHT22;4992;51.628;6.664;2023-11-21T15:32:08;9.20;99.90
9907;DHT22;4992;51.628;6.664;2023-11-21T15:34:35;9.10;99.90
9907;DHT22;4992;51.628;6.664;2023-11-21T15:37:01;9.10;99.90
9907;DHT22;4992;51.628;6.664;2023-11-21T15:39:28;9.00;99.90
9907;DHT22;4992;51.628;6.664;2023-11-21T15:41:54;9.00;99.90
9907;DHT22;4992;51.628;6.664;2023-11-21T15:44:20;8.90;99.90
9907;DHT22;4992;51.628;6.664;2023-11-21T15:46:46;8.90;99.90
9907;DHT22;4992;51.628;6.664;2023-11-21T15:49:11;8.90;99.90
9907;DHT22;4992;51.628;6.664;2023-11-21T15:51:43;8.90;99.90
9907;DHT22;4992;51.628;6.664;2023-11-21T15:54:21;8.80;99.90
9907;DHT22;4992;51.628;6.664;2023-11-21T15:56:50;8.80;99.90
9907;DHT22;4992;51.628;6.664;2023-11-21T15:59:17;8.80;99.90
9907;DHT22;4992;51.628;6.664;2023-11-21T16:01:43;8.70;99.90
9907;DHT22;4992;51.628;6.664;2023-11-21T16:04:11;8.70;99.90
9907;DHT22;4992;51.628;6.664;2023-11-21T16:06:39;8.70;99.90
9907;DHT22;4992;51.628;6.664;2023-11-21T16:09:08;8.70;99.90
9907;DHT22;4992;51.628;6.664;2023-11-21T16:11:45;8.60;99.90
9907;DHT22;4992;51.628;6.664;2023-11-21T16:14:11;8.60;99.90
9907;DHT22;4992;51.628;6.664;2023-11-21T16:16:37;8.60;99.90
9907;DHT22;4992;51.628;6.664;2023-11-21T16:19:02;8.50;99.90
9907;DHT22;4992;51.628;6.664;2023-11-21T16:21:28;8.40;99.90
9907;DHT22;4992;51.628;6.664;2023-11-21T16:23:54;8.40;99.90
9907;DHT22;4992;51.628;6.664;2023-11-21T16:26:19;8.40;99.90